Time;durP1;ratioP1;P1;durP2;ratioP2;P2;SDS_P1;SDS_P2;PMS_P1;PMS_P2;Temp;Humidity;BMP_temperature;BMP_pressure;BME280_temperature;BME280_humidity;BME280_pressure;Samples;Min_cycle;Max_cycle;Signal;HPM_P1;HPM_P2
2021/11/11 00:00:59;;;;;;;53.85;26.42;;;13.20;99.90;;;13.31;75.00;102286.91;5094023;28;20051;-67
2021/11/11 00:03:28;;;;;;;57.15;25.05;;;13.10;99.90;;;13.31;75.15;102302.84;5094008;28;20040;-68
2021/11/11 00:05:57;;;;;;;44.03;22.88;;;13.10;99.90;;;13.32;75.48;102286.00;5093832;28;20044;-68
2021/11/11 00:08:26;;;;;;;39.67;22.25;;;13.10;99.90;;;13.35;75.46;102280.72;5093874;28;20068;-68
2021/11/11 00:10:56;;;;;;;48.83;24.50;;;13.10;99.90;;;13.29;75.49;102280.69;5074519;28;20409;-67
2021/11/11 00:13:24;;;;;;;43.65;23.15;;;13.10;99.90;;;13.28;75.51;102291.28;5093884;28;20039;-68
2021/11/11 00:15:53;;;;;;;43.90;24.40;;;13.00;99.90;;;13.31;75.58;102281.56;5093683;28;20469;-68
2021/11/11 00:18:22;;;;;;;44.83;24.77;;;13.10;99.90;;;13.34;75.75;102286.91;5093652;28;20055;-68
2021/11/11 00:20:51;;;;;;;39.10;23.63;;;13.00;99.90;;;13.38;75.57;102280.72;5093677;28;20079;-68
2021/11/11 00:23:20;;;;;;;46.60;24.45;;;13.10;99.90;;;12.89;75.64;102206.81;5093876;28;20044;-68
2021/11/11 00:25:48;;;;;;;44.70;23.75;;;13.10;99.90;;;13.45;75.58;102279.00;5075469;28;20127;-68
2021/11/11 00:28:18;;;;;;;43.15;23.95;;;13.10;99.90;;;13.50;75.46;102285.22;5093449;28;20449;-68
2021/11/11 00:30:46;;;;;;;42.20;23.80;;;13.20;99.90;;;13.52;75.29;102286.13;5093703;28;20040;-68
2021/11/11 00:33:15;;;;;;;47.05;24.25;;;13.20;99.90;;;13.56;75.15;102279.97;5093649;28;20489;-67
2021/11/11 00:35:44;;;;;;;44.28;24.40;;;13.20;99.90;;;13.57;74.74;102287.94;5093662;28;20044;-68
2021/11/11 00:38:13;;;;;;;43.33;24.85;;;13.20;99.90;;;13.58;74.77;102287.06;5093279;28;20460;-67
2021/11/11 00:40:42;;;;;;;46.05;24.70;;;13.20;99.90;;;13.41;74.71;102255.94;5093580;28;20046;-68
2021/11/11 00:43:10;;;;;;;49.72;25.40;;;13.20;99.90;;;13.61;74.38;102287.97;5075344;28;20044;-68
2021/11/11 00:45:40;;;;;;;43.38;23.88;;;13.30;99.90;;;13.41;74.43;102256.81;5093096;28;20075;-68
2021/11/11 00:48:09;;;;;;;47.50;24.92;;;13.30;99.90;;;13.53;74.64;102278.16;5093738;28;20040;-68
2021/11/11 00:50:38;;;;;;;44.15;23.98;;;13.20;99.90;;;13.58;74.58;102286.19;5075142;28;20040;-68
2021/11/11 00:53:07;;;;;;;37.50;23.30;;;13.20;99.90;;;13.64;74.42;102286.22;5075188;28;20047;-68
2021/11/11 00:55:35;;;;;;;39.67;23.95;;;13.30;99.90;;;13.66;74.20;102283.56;5093319;28;20040;-68
2021/11/11 00:58:09;;;;;;;40.60;23.95;;;13.30;99.90;;;13.73;73.91;102296.91;5075214;28;20397;-67
2021/11/11 01:00:39;;;;;;;44.78;24.27;;;13.40;99.90;;;13.72;73.75;102289.81;5075165;28;20044;-68
2021/11/11 01:03:09;;;;;;;45.60;23.67;;;13.40;99.90;;;13.67;73.85;102287.97;5093313;28;20055;-68
2021/11/11 01:05:38;;;;;;;44.65;24.73;;;13.40;99.90;;;13.69;73.90;102284.47;5075016;28;20048;-68
2021/11/11 01:08:08;;;;;;;39.70;23.90;;;13.30;99.90;;;13.71;73.87;102289.78;5093159;28;20040;-68
2021/11/11 01:10:37;;;;;;;39.75;23.45;;;13.30;99.90;;;13.72;74.16;102296.91;5074933;28;20393;-68
2021/11/11 01:13:05;;;;;;;38.45;23.70;;;13.40;99.90;;;13.73;73.96;102296.00;5093123;28;20047;-68
2021/11/11 01:15:34;;;;;;;42.00;24.38;;;13.40;99.90;;;13.73;74.28;102298.66;5093050;28;20054;-68
2021/11/11 01:18:07;;;;;;;43.08;23.60;;;13.40;99.90;;;13.77;74.21;102301.34;5092840;28;20075;-68
2021/11/11 01:20:35;;;;;;;40.75;25.40;;;13.40;99.90;;;13.79;74.16;102296.03;5074908;28;20109;-67
2021/11/11 01:23:04;;;;;;;50.63;26.77;;;13.50;99.90;;;13.81;73.71;102289.84;5074544;28;20076;-67
2021/11/11 01:25:38;;;;;;;43.70;25.77;;;13.50;99.90;;;13.79;73.59;102286.28;5074685;28;20040;-68
2021/11/11 01:28:07;;;;;;;44.00;26.02;;;13.50;99.90;;;13.71;73.58;102265.84;5074902;28;20134;-67
2021/11/11 01:30:41;;;;;;;41.72;24.98;;;13.50;99.90;;;13.76;73.55;102269.44;5074867;28;20068;-68
2021/11/11 01:33:19;;;;;;;42.33;25.95;;;13.50;99.90;;;13.79;73.64;102275.66;5074800;28;20532;-68
2021/11/11 01:35:47;;;;;;;;;;;13.50;99.90;;;13.74;73.94;102269.44;5075214;28;20056;-68
2021/11/11 01:38:20;;;;;;;42.35;25.42;;;13.50;99.90;;;13.78;73.81;102273.00;5074791;28;19920;-68
2021/11/11 01:40:52;;;;;;;40.60;24.95;;;13.40;99.90;;;13.72;74.00;102268.53;5074425;28;20113;-68
2021/11/11 01:43:24;;;;;;;39.47;25.33;;;13.40;99.90;;;13.66;74.40;102259.63;5074420;28;20117;-68
2021/11/11 01:45:55;;;;;;;45.97;25.65;;;13.40;99.90;;;12.87;74.77;102160.81;5092815;28;20082;-68
2021/11/11 01:48:28;;;;;;;42.35;25.80;;;13.30;99.90;;;13.30;75.70;102254.97;5074738;28;20050;-68
2021/11/11 01:51:02;;;;;;;43.65;25.98;;;13.10;99.90;;;13.17;76.43;102256.66;5074595;28;20082;-68
2021/11/11 01:53:36;;;;;;;46.28;26.80;;;13.00;99.90;;;13.05;76.81;102245.94;5074577;28;20058;-68
2021/11/11 01:56:05;;;;;;;50.95;27.20;;;12.90;99.90;;;13.06;77.44;102242.44;5074511;28;20087;-68
2021/11/11 01:58:37;;;;;;;47.72;26.48;;;12.80;99.90;;;12.99;77.58;102240.53;5074551;28;20068;-67
2021/11/11 02:01:07;;;;;;;42.35;25.48;;;12.80;99.90;;;13.01;77.80;102244.09;5074559;28;20044;-68
2021/11/11 02:03:39;;;;;;;50.95;26.50;;;12.80;99.90;;;13.04;77.76;102245.94;5074537;28;20044;-67
2021/11/11 02:06:11;;;;;;;48.25;26.05;;;12.80;99.90;;;13.02;77.85;102243.25;5074434;28;20171;-68
2021/11/11 02:08:58;;;;;;;43.00;25.80;;;12.80;99.90;;;12.97;77.79;102236.97;5092712;28;20054;-68
2021/11/11 02:11:44;;;;;;;43.50;24.50;;;12.80;99.90;;;12.84;77.95;102235.13;5074436;28;20048;-67
2021/11/11 02:14:13;;;;;;;45.97;25.40;;;12.70;99.90;;;12.75;78.81;102227.09;5074088;28;20044;-67
2021/11/11 02:16:42;;;;;;;47.67;26.77;;;12.60;99.90;;;12.73;79.60;102223.53;5074383;28;20044;-67
2021/11/11 02:19:22;;;;;;;40.97;23.45;;;12.60;99.90;;;12.75;79.83;102227.09;5074356;28;20055;-68
2021/11/11 02:21:55;;;;;;;45.55;25.38;;;12.50;99.90;;;12.67;80.10;102218.16;5074450;28;20067;-67
2021/11/11 02:24:33;;;;;;;43.92;25.98;;;12.50;99.90;;;12.78;80.14;102229.75;5074339;28;20044;-68
2021/11/11 02:27:12;;;;;;;50.15;26.13;;;12.60;99.90;;;12.83;79.88;102232.47;5074357;28;20033;-68
2021/11/11 02:29:41;;;;;;;45.13;25.65;;;12.60;99.90;;;12.80;79.74;102230.66;5092277;28;20497;-68
2021/11/11 02:32:09;;;;;;;40.78;25.88;;;12.60;99.90;;;12.88;79.64;102241.34;5092119;28;20468;-68
2021/11/11 02:34:45;;;;;;;40.28;23.70;;;12.60;99.90;;;12.97;79.83;102242.28;5076920;28;20079;-67
2021/11/11 02:37:17;;;;;;;41.80;24.40;;;12.70;99.90;;;12.99;79.37;102232.56;5077757;28;20051;-68
2021/11/11 02:40:19;;;;;;;45.97;25.33;;;12.80;99.90;;;13.04;79.09;102227.34;5091123;28;20091;-68
2021/11/11 02:42:49;;;;;;;39.60;23.73;;;12.80;99.90;;;13.02;79.14;102229.97;5095770;28;20178;-68
2021/11/11 02:45:27;;;;;;;45.15;25.17;;;12.90;99.90;;;13.04;79.01;102224.69;5077663;28;20044;-68
2021/11/11 02:48:00;;;;;;;45.35;24.38;;;12.90;99.90;;;13.08;78.72;102224.72;5077495;28;20068;-68
2021/11/11 02:50:36;;;;;;;37.45;23.98;;;12.90;99.90;;;13.09;78.82;102226.50;5077546;28;20051;-68
2021/11/11 02:53:08;;;;;;;40.15;24.42;;;12.90;99.90;;;13.07;78.78;102222.03;5077481;28;20048;-68
2021/11/11 02:55:39;;;;;;;45.08;24.83;;;12.90;99.90;;;13.04;79.12;102228.25;5077472;28;20410;-68
2021/11/11 02:58:08;;;;;;;40.45;22.98;;;12.80;99.90;;;12.99;79.55;102219.28;5077057;28;20047;-68
2021/11/11 03:00:46;;;;;;;49.30;26.15;;;12.80;99.90;;;12.77;80.09;102216.47;5077408;28;20130;-68
2021/11/11 03:03:18;;;;;;;42.67;24.80;;;12.70;99.90;;;12.85;80.16;102231.59;5077280;28;20044;-68
2021/11/11 03:05:47;;;;;;;41.97;25.05;;;12.70;99.90;;;12.27;80.00;102124.03;5095410;28;20044;-68
2021/11/11 03:08:17;;;;;;;50.67;25.75;;;12.70;99.90;;;12.83;80.19;102236.00;5076997;28;20047;-68
2021/11/11 03:10:51;;;;;;;47.65;25.50;;;12.60;99.90;;;12.65;80.31;102228.78;5077064;28;20089;-68
2021/11/11 03:13:21;;;;;;;43.88;24.98;;;12.60;99.90;;;12.81;80.16;102227.13;5076720;28;20048;-68
2021/11/11 03:15:59;;;;;;;42.10;25.02;;;12.60;99.90;;;12.86;80.05;102228.06;5077083;28;20048;-68
2021/11/11 03:18:27;;;;;;;42.60;24.83;;;12.60;99.90;;;12.99;79.87;102237.03;5076938;28;20481;-68
2021/11/11 03:20:56;;;;;;;40.17;24.23;;;12.70;99.90;;;13.05;79.63;102229.09;5076948;28;20134;-68
2021/11/11 03:23:26;;;;;;;44.33;25.25;;;12.80;99.90;;;13.07;79.28;102235.31;5076988;28;20075;-68
2021/11/11 03:25:56;;;;;;;47.97;25.73;;;12.90;99.90;;;13.21;78.93;102234.56;5076864;28;20048;-68
2021/11/11 03:28:35;;;;;;;43.05;24.85;;;12.90;99.90;;;13.28;78.79;102241.69;5076849;28;20089;-68
2021/11/11 03:31:04;;;;;;;48.20;25.92;;;13.00;99.90;;;13.32;78.65;102238.16;5076504;28;20072;-68
2021/11/11 03:33:33;;;;;;;46.38;25.50;;;13.00;99.90;;;13.30;78.43;102239.91;5076704;28;20036;-68
2021/11/11 03:36:01;;;;;;;47.40;26.48;;;13.00;99.90;;;13.22;78.33;102233.66;5076654;28;20082;-68
2021/11/11 03:38:31;;;;;;;42.75;25.02;;;13.00;99.90;;;13.32;78.07;102235.50;5094725;28;20069;-68
2021/11/11 03:41:00;;;;;;;45.90;24.65;;;13.00;99.90;;;13.32;78.35;102243.47;5076635;28;20067;-68
2021/11/11 03:43:34;;;;;;;47.90;25.80;;;13.00;99.90;;;13.26;78.17;102243.44;5076500;28;20040;-67
2021/11/11 03:46:12;;;;;;;45.60;24.95;;;13.00;99.90;;;13.27;78.28;102247.00;5076334;28;20054;-68
2021/11/11 03:48:47;;;;;;;48.40;26.42;;;13.00;99.90;;;13.29;78.35;102238.16;5076466;28;20109;-68
2021/11/11 03:51:17;;;;;;;43.55;24.48;;;13.00;99.90;;;13.35;78.09;102239.97;5094759;28;20139;-68
2021/11/11 03:53:52;;;;;;;49.55;25.90;;;13.00;99.90;;;13.35;77.93;102242.63;5076224;28;20036;-67
2021/11/11 03:56:21;;;;;;;43.50;25.80;;;13.00;99.90;;;13.33;77.90;102236.41;5076308;28;20036;-67
2021/11/11 03:58:52;;;;;;;47.22;25.25;;;13.00;99.90;;;13.30;77.96;102239.91;5076241;28;20040;-68
2021/11/11 04:01:23;;;;;;;48.97;24.80;;;13.00;99.90;;;13.26;78.11;102239.88;5076216;28;20073;-68
2021/11/11 04:03:52;;;;;;;49.70;26.35;;;13.00;99.90;;;13.25;78.33;102239.00;5094246;28;20062;-68
2021/11/11 04:06:20;;;;;;;44.20;25.17;;;13.00;99.90;;;13.22;78.58;102235.44;5075977;28;20123;-68
2021/11/11 04:08:51;;;;;;;41.08;25.00;;;12.90;99.90;;;13.30;78.07;102242.56;5075841;28;20055;-67
2021/11/11 04:11:19;;;;;;;44.25;25.25;;;12.90;99.90;;;13.27;78.20;102236.34;5094274;28;20097;-68
2021/11/11 04:13:51;;;;;;;44.60;25.50;;;13.00;99.90;;;13.29;78.10;102240.81;5075600;28;20052;-68
2021/11/11 04:16:19;;;;;;;42.72;25.98;;;12.90;99.90;;;13.00;78.38;102223.75;5076069;28;20138;-68
2021/11/11 04:18:49;;;;;;;41.60;25.60;;;12.90;99.90;;;13.09;78.63;102239.78;5093876;28;20044;-68
2021/11/11 04:21:18;;;;;;;47.08;27.70;;;13.00;99.90;;;13.25;78.24;102246.97;5093900;28;20043;-68
2021/11/11 04:23:48;;;;;;;38.83;25.30;;;13.00;99.90;;;13.25;78.62;102252.28;5075648;28;20105;-68
2021/11/11 04:26:21;;;;;;;39.88;25.73;;;12.90;99.90;;;11.43;78.13;101950.91;5075669;28;20044;-68
2021/11/11 04:28:55;;;;;;;43.45;26.35;;;13.00;99.90;;;13.27;78.02;102255.84;5075590;28;20466;-68
2021/11/11 04:31:26;;;;;;;40.50;26.25;;;13.00;99.90;;;13.28;78.19;102249.66;5075648;28;20051;-68
2021/11/11 04:34:02;;;;;;;46.75;27.00;;;13.00;99.90;;;13.30;78.10;102253.22;5075571;28;20048;-68
2021/11/11 04:39:36;;;;;;;42.20;26.13;;;13.00;99.90;;;13.37;77.93;102248.84;5075420;28;20040;-68
2021/11/11 04:42:26;;;;;;;43.10;25.48;;;13.00;99.90;;;13.39;78.17;102247.94;5075717;28;20063;-68
2021/11/11 04:45:07;;;;;;;47.60;25.98;;;13.10;99.90;;;13.40;77.91;102236.44;5075419;28;20468;-68
2021/11/11 04:47:49;;;;;;;42.97;26.25;;;13.10;99.90;;;13.40;77.78;102231.13;5075032;28;20048;-68
2021/11/11 05:01:43;;;;;;;43.08;25.92;;;13.10;99.90;;;13.43;77.28;102244.41;5011024;28;20074;-68
2021/11/11 05:04:12;;;;;;;44.75;27.05;;;13.10;99.90;;;13.34;77.44;102232.84;5043951;28;20097;-68
2021/11/11 05:06:44;;;;;;;44.00;25.65;;;13.10;99.90;;;13.34;77.43;102233.75;5075011;28;20043;-69
2021/11/11 05:09:12;;;;;;;39.92;26.65;;;13.10;99.90;;;13.39;77.73;102245.28;5074777;28;20076;-67
2021/11/11 05:11:41;;;;;;;43.28;26.60;;;13.00;99.90;;;13.29;77.87;102231.94;5093217;28;20473;-67
2021/11/11 05:14:11;;;;;;;47.35;28.13;;;13.10;99.90;;;13.39;77.81;102247.06;5093013;28;20044;-65
2021/11/11 05:16:39;;;;;;;42.60;26.77;;;13.00;99.90;;;13.24;77.96;102223.94;5074611;28;20105;-67
2021/11/11 05:19:08;;;;;;;47.78;27.45;;;13.00;99.90;;;13.25;77.98;102239.00;5074876;28;20067;-67
2021/11/11 05:21:36;;;;;;;42.75;27.40;;;13.00;99.90;;;13.33;78.24;102250.59;5074885;28;20048;-66
2021/11/11 05:24:05;;;;;;;46.78;26.98;;;13.00;99.90;;;13.33;78.01;102247.94;5092913;28;20074;-65
2021/11/11 05:26:36;;;;;;;42.47;26.83;;;13.00;99.90;;;13.37;78.22;102259.47;5074587;28;20043;-66
2021/11/11 05:29:05;;;;;;;44.22;27.23;;;13.00;99.90;;;13.36;78.29;102255.00;5092592;28;20040;-66
2021/11/11 05:31:35;;;;;;;49.30;28.20;;;13.00;99.90;;;13.31;78.42;102259.41;5092960;28;20038;-66
2021/11/11 05:34:04;;;;;;;46.28;28.45;;;13.00;99.90;;;13.21;78.67;102257.56;5092860;28;20067;-65
2021/11/11 05:36:32;;;;;;;47.20;28.30;;;13.00;99.90;;;13.27;78.50;102252.31;5074498;28;20067;-65
2021/11/11 05:39:01;;;;;;;43.85;27.02;;;13.00;99.90;;;13.35;78.45;102256.81;5074651;28;20072;-65
2021/11/11 05:41:30;;;;;;;44.15;27.98;;;13.00;99.90;;;13.36;78.81;102257.66;5074658;28;20584;-65
2021/11/11 05:44:01;;;;;;;;;;;13.00;99.90;;;13.36;78.54;102253.25;5075208;28;20505;-65
2021/11/11 05:46:30;;;;;;;48.00;27.33;;;13.10;99.90;;;13.44;78.43;102256.84;5074919;28;20018;-66
2021/11/11 05:49:01;;;;;;;46.58;27.05;;;13.10;99.90;;;13.30;78.67;102247.00;5074548;28;20048;-65
2021/11/11 05:51:30;;;;;;;47.10;28.38;;;13.10;99.90;;;13.21;79.24;102252.25;5092803;28;20052;-65
2021/11/11 05:53:59;;;;;;;51.80;28.52;;;13.00;99.90;;;13.20;79.57;102251.34;5074512;28;20040;-66
2021/11/11 05:56:29;;;;;;;46.65;28.17;;;12.90;99.90;;;13.16;79.25;102251.34;5074301;28;20130;-66
2021/11/11 05:58:57;;;;;;;46.15;29.40;;;13.00;99.90;;;13.31;79.10;102248.78;5074239;28;20479;-66
2021/11/11 06:01:26;;;;;;;41.92;27.83;;;13.00;99.90;;;13.41;79.01;102255.94;5074260;28;20054;-66
2021/11/11 06:03:54;;;;;;;45.97;27.20;;;13.10;99.90;;;13.43;79.08;102260.38;5074473;28;20094;-65
2021/11/11 06:06:25;;;;;;;42.88;27.10;;;13.10;99.90;;;13.47;78.93;102256.84;5074478;28;20117;-65
2021/11/11 06:08:54;;;;;;;44.72;28.15;;;13.20;99.90;;;13.48;78.73;102258.66;5094439;28;20040;-65
2021/11/11 06:11:22;;;;;;;41.92;27.65;;;13.10;99.90;;;13.51;78.57;102261.31;5096557;28;20143;-65
2021/11/11 06:13:51;;;;;;;43.17;28.90;;;13.20;99.90;;;13.56;78.76;102259.59;5096360;28;20043;-65
2021/11/11 06:16:21;;;;;;;48.00;27.58;;;13.20;99.90;;;13.55;78.66;102254.22;5096246;28;20044;-65
2021/11/11 06:18:50;;;;;;;41.03;28.15;;;13.20;99.90;;;13.62;78.51;102263.16;5078109;28;20489;-65
2021/11/11 06:21:22;;;;;;;45.95;28.52;;;13.30;99.90;;;13.61;78.59;102264.03;5078000;28;20485;-65
2021/11/11 06:23:54;;;;;;;39.75;27.77;;;13.30;99.90;;;13.63;78.86;102271.13;5095931;28;20036;-65
2021/11/11 06:26:27;;;;;;;41.38;28.10;;;13.30;99.90;;;13.66;78.64;102264.94;5077963;28;20127;-65
2021/11/11 06:29:02;;;;;;;43.95;28.60;;;13.30;99.90;;;13.58;78.70;102254.28;5077527;28;20044;-65
2021/11/11 06:31:30;;;;;;;47.28;28.63;;;13.30;99.90;;;13.70;78.63;102269.41;5077802;28;20051;-65
2021/11/11 06:34:01;;;;;;;45.05;27.88;;;13.30;99.90;;;13.70;78.36;102272.97;5077721;28;20044;-65
2021/11/11 06:36:31;;;;;;;41.17;27.15;;;13.40;99.90;;;13.69;78.68;102294.19;5095659;28;20047;-65
2021/11/11 06:39:01;;;;;;;42.47;28.10;;;13.40;99.90;;;13.69;78.74;102283.56;5095610;28;20048;-65
2021/11/11 06:41:29;;;;;;;44.03;28.83;;;13.30;99.90;;;13.72;78.64;102294.22;5095715;28;20052;-66
2021/11/11 06:43:58;;;;;;;46.92;28.55;;;13.30;99.90;;;13.74;78.64;102287.16;5095835;28;20048;-65
2021/11/11 06:46:26;;;;;;;41.85;26.65;;;13.40;99.90;;;13.22;78.50;102196.47;5095472;28;20443;-65
2021/11/11 06:48:55;;;;;;;39.40;27.63;;;13.40;99.90;;;13.76;78.47;102298.69;5095418;28;20044;-65
2021/11/11 06:51:24;;;;;;;44.20;28.38;;;13.40;99.90;;;13.64;78.41;102288.88;5095331;28;20048;-65
2021/11/11 06:53:52;;;;;;;43.05;27.92;;;13.40;99.90;;;13.75;78.51;102304.88;5095647;28;20051;-65
2021/11/11 06:56:22;;;;;;;47.67;28.70;;;13.40;99.90;;;13.78;78.44;102302.25;5095794;28;20071;-66
2021/11/11 06:58:50;;;;;;;47.50;28.57;;;13.40;99.90;;;13.78;78.77;102297.78;5095581;28;20048;-65
2021/11/11 07:01:21;;;;;;;39.25;27.15;;;13.40;99.90;;;13.77;78.28;102297.78;5077252;28;20420;-65
2021/11/11 07:03:52;;;;;;;44.65;27.98;;;13.40;99.90;;;13.80;78.37;102313.78;5077225;28;20040;-65
2021/11/11 07:06:21;;;;;;;38.58;27.80;;;13.40;99.90;;;13.79;78.64;102310.22;5077049;28;20052;-66
2021/11/11 07:08:50;;;;;;;44.63;28.90;;;13.50;99.90;;;13.85;78.57;102307.59;5094887;28;20090;-65
2021/11/11 07:11:18;;;;;;;44.95;28.23;;;13.50;99.90;;;13.85;78.57;102312.94;5094730;28;20459;-65
2021/11/11 07:13:48;;;;;;;45.30;29.38;;;13.50;99.90;;;13.82;78.48;102312.03;5095149;28;20134;-65
2021/11/11 07:16:16;;;;;;;40.30;28.83;;;13.50;99.90;;;13.83;78.41;102320.00;5094877;28;20040;-66
2021/11/11 07:18:45;;;;;;;45.28;28.50;;;13.50;99.90;;;13.88;78.40;102322.72;5094599;28;20047;-65
2021/11/11 07:21:14;;;;;;;43.95;29.08;;;13.50;99.90;;;13.85;78.78;102318.25;5094641;28;20071;-65
2021/11/11 07:23:42;;;;;;;44.17;29.48;;;13.50;99.90;;;13.85;79.08;102317.34;5094968;28;20052;-66
2021/11/11 07:26:12;;;;;;;45.25;30.10;;;13.50;99.90;;;13.82;79.33;102320.00;5094936;28;20568;-65
2021/11/11 07:28:42;;;;;;;44.35;30.33;;;13.50;99.90;;;13.76;79.61;102317.31;5094584;28;20040;-65
2021/11/11 07:31:12;;;;;;;44.72;29.58;;;13.40;99.90;;;13.79;79.81;102330.63;5094620;28;20036;-65
2021/11/11 07:33:41;;;;;;;44.50;31.73;;;13.40;99.90;;;13.78;80.21;102332.38;5094865;28;20048;-65
2021/11/11 07:36:09;;;;;;;40.33;29.25;;;13.40;99.90;;;13.74;80.50;102325.28;5094407;28;20067;-65
2021/11/11 07:38:37;;;;;;;43.33;30.67;;;13.50;99.90;;;13.77;80.69;102332.38;5094385;28;20052;-65
2021/11/11 07:41:09;;;;;;;49.90;30.33;;;13.40;99.90;;;13.64;81.08;102310.16;5094745;28;20074;-66
2021/11/11 07:43:37;;;;;;;41.50;29.63;;;13.40;99.90;;;13.64;81.26;102311.91;5094611;28;20052;-67
2021/11/11 07:46:06;;;;;;;45.63;30.73;;;13.40;99.90;;;13.74;81.23;102340.34;5076366;28;20052;-66
2021/11/11 07:48:36;;;;;;;44.45;31.92;;;13.40;99.90;;;13.77;81.24;102340.34;5094414;28;20063;-66
2021/11/11 07:51:06;;;;;;;41.03;30.27;;;13.40;99.90;;;13.76;81.35;102339.47;5094582;28;20036;-66
2021/11/11 07:53:35;;;;;;;40.28;29.45;;;13.40;99.90;;;13.75;81.49;102327.03;5094233;28;20040;-67
2021/11/11 07:56:05;;;;;;;45.45;31.35;;;13.40;99.90;;;13.76;81.64;102333.28;5094085;28;20573;-65
2021/11/11 07:58:33;;;;;;;45.33;31.03;;;13.40;99.90;;;13.76;81.65;102335.94;5094700;28;20074;-65
2021/11/11 08:01:02;;;;;;;50.40;32.58;;;13.40;99.90;;;13.70;82.03;102341.19;5094008;28;20317;-65
2021/11/11 08:03:30;;;;;;;45.83;32.53;;;13.40;99.90;;;13.71;82.64;102348.28;5094244;28;20044;-65
2021/11/11 08:06:00;;;;;;;45.03;32.25;;;13.30;99.90;;;13.15;82.59;102245.13;5093771;28;20102;-66
2021/11/11 08:08:29;;;;;;;49.53;33.27;;;13.30;99.90;;;13.63;83.04;102342.91;5093881;28;20046;-65
2021/11/11 08:11:00;;;;;;;48.03;32.80;;;13.30;99.90;;;13.64;82.51;102334.06;5093562;28;20302;-65
2021/11/11 08:13:29;;;;;;;44.08;31.92;;;13.30;99.90;;;13.58;82.99;102324.28;5075916;28;20112;-64
2021/11/11 08:15:58;;;;;;;47.55;33.20;;;13.30;99.90;;;13.58;83.10;102313.66;5093972;28;20565;-64
2021/11/11 08:18:27;;;;;;;48.42;33.63;;;13.30;99.90;;;13.52;83.33;102318.03;5093985;28;20036;-64
2021/11/11 08:20:55;;;;;;;47.33;33.90;;;13.20;99.90;;;13.49;84.01;102321.56;5093881;28;20122;-63
2021/11/11 08:23:26;;;;;;;46.85;33.08;;;13.20;99.90;;;13.60;83.82;102321.63;5093568;28;20036;-64
2021/11/11 08:26:00;;;;;;;45.95;32.67;;;13.20;99.90;;;13.59;83.80;102320.75;5093572;28;20044;-64
2021/11/11 08:28:28;;;;;;;49.53;35.42;;;13.20;99.90;;;13.50;84.20;102311.81;5093831;28;20044;-64
2021/11/11 08:30:57;;;;;;;51.17;35.70;;;13.20;99.90;;;13.52;84.41;102313.63;5092624;28;20039;-62
2021/11/11 08:33:26;;;;;;;50.33;34.42;;;13.20;99.90;;;13.55;84.60;102313.63;5093557;28;20046;-63
2021/11/11 08:35:54;;;;;;;49.13;34.50;;;13.20;99.90;;;13.53;84.57;102319.81;5093382;28;20040;-63
2021/11/11 08:38:22;;;;;;;50.88;36.03;;;13.20;99.90;;;13.56;84.83;102323.41;5093347;28;20071;-63
2021/11/11 08:40:52;;;;;;;51.65;38.17;;;13.20;99.90;;;13.59;84.98;102326.06;5093231;28;20461;-66
2021/11/11 08:43:20;;;;;;;58.93;38.63;;;13.20;99.90;;;13.66;85.22;102328.75;5093566;28;20040;-65
2021/11/11 08:45:52;;;;;;;54.17;37.92;;;13.30;99.90;;;13.68;85.25;102335.88;5075342;28;20044;-66
2021/11/11 08:48:22;;;;;;;56.83;39.15;;;13.30;99.90;;;13.60;85.02;102313.66;5075335;28;20048;-65
2021/11/11 08:50:51;;;;;;;57.78;38.88;;;13.40;99.90;;;13.71;85.21;102335.88;5093363;28;20114;-63
2021/11/11 08:53:19;;;;;;;50.85;37.15;;;13.40;99.90;;;13.78;85.23;102337.69;5093094;28;20049;-64
2021/11/11 08:55:48;;;;;;;58.42;39.40;;;13.40;99.90;;;13.78;85.62;102336.81;5093282;28;20047;-64
2021/11/11 08:58:18;;;;;;;52.00;38.40;;;13.40;99.90;;;13.78;85.71;102336.81;5093257;28;20044;-63
2021/11/11 09:00:51;;;;;;;56.07;40.07;;;13.40;99.90;;;13.62;85.78;102324.31;5093137;28;20576;-63
2021/11/11 09:03:23;;;;;;;56.28;39.60;;;13.40;99.90;;;13.60;85.73;102311.00;5092953;28;20318;-66
2021/11/11 09:05:51;;;;;;;55.25;40.47;;;13.40;99.90;;;13.67;85.88;102336.75;5093111;28;20481;-66
2021/11/11 09:08:20;;;;;;;58.72;40.95;;;13.30;99.90;;;13.62;86.31;102332.28;5093081;28;20072;-65
2021/11/11 09:10:50;;;;;;;54.72;41.13;;;13.30;99.90;;;13.68;86.37;102335.88;5092605;28;20477;-67
2021/11/11 09:13:32;;;;;;;57.90;40.97;;;13.30;99.90;;;13.74;86.34;102332.38;5093081;28;20052;-63
2021/11/11 09:16:01;;;;;;;58.67;40.75;;;13.30;99.90;;;13.77;86.47;102346.56;5074937;28;20075;-63
2021/11/11 09:18:31;;;;;;;52.95;39.03;;;13.40;99.90;;;13.77;86.38;102340.34;5092630;28;20055;-64
2021/11/11 09:21:05;;;;;;;55.65;40.92;;;13.40;99.90;;;13.78;86.55;102343.00;5092922;28;20451;-64
2021/11/11 09:23:36;;;;;;;55.22;39.38;;;13.40;99.90;;;13.84;86.67;102347.50;5092601;28;20098;-64
2021/11/11 09:26:07;;;;;;;49.83;40.00;;;13.50;99.90;;;13.91;86.47;102344.00;5092556;28;20067;-64
2021/11/11 09:28:40;;;;;;;54.30;40.55;;;13.60;99.90;;;13.84;86.33;102318.25;5092881;28;20040;-65
2021/11/11 09:31:11;;;;;;;55.53;39.55;;;13.60;99.90;;;13.95;86.22;102348.44;5074606;28;20101;-63
2021/11/11 09:33:40;;;;;;;;;;;13.60;99.90;;;13.93;85.85;102335.16;5093216;28;20048;-63
2021/11/11 09:36:09;;;;;;;54.33;39.95;;;13.70;99.90;;;13.98;86.10;102341.38;5092499;28;20301;-63
2021/11/11 09:38:37;;;;;;;55.30;39.78;;;13.70;99.90;;;14.02;86.05;102347.59;5092934;28;20572;-63
2021/11/11 09:41:06;;;;;;;54.25;39.97;;;13.70;99.90;;;14.04;85.95;102335.19;5092627;28;20448;-64
2021/11/11 09:43:39;;;;;;;50.63;39.05;;;13.70;99.90;;;14.02;85.89;102347.59;5095554;28;20076;-65
2021/11/11 09:46:11;;;;;;;55.22;41.25;;;13.70;99.90;;;14.03;86.14;102346.72;5096919;28;20044;-67
2021/11/11 09:48:44;;;;;;;54.58;39.75;;;13.70;99.90;;;13.96;86.27;102336.91;5096863;28;20062;-66
2021/11/11 09:51:17;;;;;;;55.70;41.63;;;13.70;99.90;;;13.99;86.19;102345.81;5078512;28;20052;-66
2021/11/11 09:53:56;;;;;;;57.58;41.40;;;13.70;99.90;;;14.02;86.32;102350.25;5096641;28;20051;-67
2021/11/11 09:59:27;;;;;;;58.17;42.00;;;13.70;99.90;;;14.06;85.86;102350.28;5096212;28;20380;-68
2021/11/11 10:01:57;;;;;;;54.88;40.75;;;13.80;99.90;;;13.96;86.03;102351.09;5095788;28;20044;-67
2021/11/11 10:04:27;;;;;;;56.22;38.97;;;13.80;99.90;;;14.01;85.93;102351.16;5078305;28;20044;-67
2021/11/11 10:06:56;;;;;;;53.70;40.13;;;13.70;99.90;;;13.92;86.08;102330.69;5096068;28;20032;-66
2021/11/11 10:09:26;;;;;;;55.53;40.28;;;13.70;99.90;;;14.09;85.92;102352.06;5095742;28;20064;-67
2021/11/11 10:11:57;;;;;;;60.63;42.22;;;13.80;99.90;;;14.03;85.83;102352.03;5096036;28;20044;-67
2021/11/11 10:14:30;;;;;;;60.15;40.58;;;13.80;99.90;;;14.00;85.96;102360.00;5096245;28;20048;-67
2021/11/11 10:17:01;;;;;;;54.33;39.42;;;13.70;99.90;;;13.87;86.12;102337.75;5096114;28;20052;-72
2021/11/11 10:19:34;;;;;;;54.38;39.13;;;13.70;99.90;;;13.88;86.41;102355.50;5096224;28;20051;-69
2021/11/11 10:22:06;;;;;;;58.72;40.63;;;13.60;99.90;;;13.71;86.72;102345.63;5095734;28;20477;-67
2021/11/11 10:24:43;;;;;;;53.97;40.17;;;13.60;99.90;;;13.82;86.87;102354.59;5095554;28;20052;-67
2021/11/11 10:27:24;;;;;;;55.17;38.50;;;13.50;99.90;;;13.82;87.14;102366.09;5077885;28;20117;-68
2021/11/11 10:30:01;;;;;;;57.35;40.92;;;13.50;99.90;;;13.81;86.91;102363.44;5095662;28;20507;-67
2021/11/11 10:32:35;;;;;;;58.42;40.22;;;13.50;99.90;;;13.62;87.12;102343.81;5096056;28;20044;-67